createdAt,value
2019-05-01T00:02:38.272Z,36.68
2019-05-01T00:05:24.896Z,39.15
2019-05-01T00:07:54.858Z,38.45
2019-05-01T00:10:25.991Z,40.05
2019-05-01T00:12:56.611Z,40.80
2019-05-01T00:15:30.431Z,36.50
2019-05-01T00:18:01.114Z,36.33
2019-05-01T00:20:30.720Z,38.73
2019-05-01T00:23:01.191Z,41.10
2019-05-01T00:25:31.370Z,43.75
2019-05-01T00:28:01.743Z,38.88
2019-05-01T00:30:31.466Z,44.40
2019-05-01T00:33:01.687Z,41.15
2019-05-01T00:35:33.975Z,39.20
2019-05-01T00:38:03.966Z,40.92
2019-05-01T00:40:34.218Z,43.38
2019-05-01T00:43:03.901Z,43.05
2019-05-01T00:45:33.799Z,38.23
2019-05-01T00:48:03.908Z,42.17
2019-05-01T00:50:34.222Z,43.83
2019-05-01T00:53:04.290Z,43.55
2019-05-01T00:55:51.095Z,40.75
2019-05-01T00:58:38.845Z,43.52
2019-05-01T01:01:26.643Z,41.20
2019-05-01T01:03:57.179Z,42.75
2019-05-01T01:06:27.555Z,43.10
2019-05-01T01:08:57.991Z,45.25
2019-05-01T01:11:28.702Z,42.73
2019-05-01T01:13:58.974Z,39.50
2019-05-01T01:16:28.267Z,45.17
2019-05-01T01:18:58.599Z,44.13
2019-05-01T01:21:28.940Z,39.40
2019-05-01T01:23:59.347Z,45.20
2019-05-01T01:26:29.728Z,42.00
2019-05-01T01:28:59.979Z,45.10
2019-05-01T01:31:30.321Z,42.43
2019-05-01T01:34:00.768Z,41.23
2019-05-01T01:36:31.572Z,41.05
2019-05-01T01:39:01.613Z,43.63
2019-05-01T01:41:31.878Z,43.73
2019-05-01T01:44:23.632Z,42.30
2019-05-01T01:46:55.133Z,42.03
2019-05-01T01:49:25.442Z,41.80
2019-05-01T01:51:55.879Z,41.42
2019-05-01T01:54:26.714Z,44.15
2019-05-01T01:56:56.921Z,46.33
2019-05-01T01:59:28.287Z,48.08
2019-05-01T02:02:35.422Z,44.35
2019-05-01T02:05:22.219Z,44.15
2019-05-01T02:07:53.063Z,43.65
2019-05-01T02:10:23.427Z,41.92
2019-05-01T02:12:53.221Z,45.40
2019-05-01T02:15:22.853Z,49.77
2019-05-01T02:17:53.280Z,39.67
2019-05-01T02:20:24.303Z,44.30
2019-05-01T02:22:54.595Z,45.03
2019-05-01T02:25:25.188Z,42.15
2019-05-01T02:28:33.068Z,44.48
2019-05-01T02:31:28.101Z,47.27
2019-05-01T02:33:55.356Z,46.18
2019-05-01T02:36:27.209Z,44.93
2019-05-01T02:38:58.368Z,45.28
2019-05-01T02:41:31.831Z,47.58
2019-05-01T02:44:07.670Z,50.17
2019-05-01T02:46:40.551Z,47.70
2019-05-01T02:49:14.647Z,47.10
2019-05-01T02:51:46.077Z,47.48
2019-05-01T02:54:19.432Z,42.73
2019-05-01T02:56:55.432Z,56.75
2019-05-01T02:59:46.156Z,47.58
2019-05-01T03:02:35.318Z,48.58
2019-05-01T03:05:06.449Z,56.18
2019-05-01T03:07:38.334Z,52.03
2019-05-01T03:10:09.925Z,55.45
2019-05-01T03:12:42.417Z,57.75
2019-05-01T03:15:13.413Z,47.50
2019-05-01T03:18:09.167Z,49.75
2019-05-01T03:21:10.704Z,47.70
2019-05-01T03:23:44.559Z,46.80
2019-05-01T03:26:16.112Z,46.73
2019-05-01T03:28:46.571Z,44.93
2019-05-01T03:31:16.816Z,49.85
2019-05-01T03:33:47.123Z,47.98
2019-05-01T03:36:17.109Z,45.92
2019-05-01T03:38:48.107Z,48.50
2019-05-01T03:41:18.532Z,49.10
2019-05-01T03:43:49.382Z,46.40
2019-05-01T03:46:20.338Z,52.13
2019-05-01T03:48:51.314Z,51.25
2019-05-01T03:51:21.436Z,57.20
2019-05-01T03:53:51.976Z,51.80
2019-05-01T03:56:21.912Z,52.40
2019-05-01T03:58:52.599Z,54.15
2019-05-01T04:01:40.631Z,48.85
2019-05-01T04:04:14.750Z,53.92
2019-05-01T04:06:44.861Z,49.73
2019-05-01T04:09:15.327Z,52.60
2019-05-01T04:11:44.960Z,54.63
2019-05-01T04:14:15.630Z,48.42
2019-05-01T04:16:48.666Z,50.83
2019-05-01T04:19:18.258Z,47.75
2019-05-01T04:21:53.911Z,47.60
2019-05-01T04:24:24.008Z,45.55
2019-05-01T04:26:54.709Z,44.42
2019-05-01T04:29:33.181Z,43.95
2019-05-01T04:32:12.474Z,45.65
2019-05-01T04:34:56.484Z,45.52
2019-05-01T04:37:27.084Z,42.78
2019-05-01T04:39:57.562Z,43.25
2019-05-01T04:42:27.239Z,47.45
2019-05-01T04:44:57.596Z,44.85
2019-05-01T04:47:27.632Z,43.70
2019-05-01T04:49:56.909Z,39.23
2019-05-01T04:52:27.608Z,35.73
2019-05-01T04:54:58.516Z,28.80
2019-05-01T04:57:28.132Z,27.65
2019-05-01T04:59:59.178Z,26.77
2019-05-01T05:02:38.731Z,26.65
2019-05-01T05:05:09.288Z,23.07
2019-05-01T05:07:39.694Z,25.12
2019-05-01T05:10:10.442Z,21.65
2019-05-01T05:12:55.007Z,25.52
2019-05-01T05:15:50.270Z,21.77
2019-05-01T05:18:20.316Z,21.55
2019-05-01T05:20:51.360Z,37.70
2019-05-01T05:23:21.413Z,26.33
2019-05-01T05:25:51.686Z,26.73
2019-05-01T05:28:22.666Z,24.35
2019-05-01T05:30:54.627Z,25.43
2019-05-01T05:33:27.999Z,29.70
2019-05-01T05:36:00.115Z,32.03
2019-05-01T05:38:55.951Z,32.60
2019-05-01T05:41:26.619Z,34.83
2019-05-01T05:43:56.918Z,38.73
2019-05-01T05:46:27.579Z,40.73
2019-05-01T05:48:58.532Z,41.40
2019-05-01T05:51:47.759Z,28.83
2019-05-01T05:54:57.720Z,27.42
2019-05-01T05:57:37.603Z,22.27
2019-05-01T06:00:23.654Z,24.50
2019-05-01T06:03:04.936Z,23.98
2019-05-01T06:05:46.417Z,24.05
2019-05-01T06:08:23.708Z,24.57
2019-05-01T06:11:19.315Z,23.27
2019-05-01T06:14:26.925Z,21.62
2019-05-01T06:17:23.875Z,24.25
2019-05-01T06:20:13.844Z,23.47
2019-05-01T06:23:02.105Z,23.30
2019-05-01T06:25:36.253Z,22.42
2019-05-01T06:28:06.741Z,21.45
2019-05-01T06:30:37.483Z,21.85
2019-05-01T06:33:09.389Z,22.02
2019-05-01T06:35:40.418Z,22.85
2019-05-01T06:38:16.992Z,22.35
2019-05-01T06:40:53.127Z,23.18
2019-05-01T06:43:51.698Z,24.50
2019-05-01T06:46:37.713Z,21.30
2019-05-01T06:49:24.110Z,20.70
2019-05-01T06:51:55.210Z,22.90
2019-05-01T06:54:27.834Z,21.23
2019-05-01T06:57:01.414Z,21.77
2019-05-01T06:59:33.366Z,21.25
2019-05-01T07:02:03.356Z,22.58
2019-05-01T07:04:37.975Z,24.60
2019-05-01T07:07:07.113Z,21.02
2019-05-01T07:09:39.385Z,19.25
2019-05-01T07:12:14.548Z,21.40
2019-05-01T07:14:47.166Z,19.67
2019-05-01T07:17:17.634Z,23.57
2019-05-01T07:20:18.791Z,21.00
2019-05-01T07:22:48.669Z,23.32
2019-05-01T07:25:19.376Z,22.13
2019-05-01T07:27:49.050Z,25.02
2019-05-01T07:30:38.087Z,25.25
2019-05-01T07:33:11.954Z,22.52
2019-05-01T07:35:41.789Z,24.80
2019-05-01T07:38:11.038Z,23.65
2019-05-01T07:40:41.384Z,24.95
2019-05-01T07:43:18.952Z,27.80
2019-05-01T07:46:03.311Z,25.32
2019-05-01T07:48:41.456Z,23.77
2019-05-01T07:51:10.247Z,22.37
2019-05-01T07:53:41.120Z,23.00
2019-05-01T07:56:11.235Z,22.32
2019-05-01T07:58:41.529Z,20.80
2019-05-01T08:01:39.015Z,25.05
2019-05-01T08:04:09.066Z,21.60
2019-05-01T08:06:39.164Z,25.00
2019-05-01T08:09:11.207Z,24.50
2019-05-01T08:11:44.019Z,26.00
2019-05-01T08:14:16.651Z,25.12
2019-05-01T08:16:44.661Z,27.32
2019-05-01T08:19:39.374Z,26.48
2019-05-01T08:22:32.038Z,27.02
2019-05-01T08:25:01.783Z,27.48
2019-05-01T08:27:58.133Z,26.93
2019-05-01T08:30:47.949Z,25.10
2019-05-01T08:33:37.198Z,26.40
2019-05-01T08:36:11.595Z,27.05
2019-05-01T08:38:39.686Z,28.52
2019-05-01T08:41:11.855Z,26.52
2019-05-01T08:43:42.208Z,26.50
2019-05-01T08:46:33.818Z,26.37
2019-05-01T08:49:20.812Z,25.82
2019-05-01T08:51:50.786Z,27.73
2019-05-01T08:54:21.163Z,26.37
2019-05-01T08:56:53.115Z,28.12
2019-05-01T08:59:24.090Z,26.62
2019-05-01T09:02:08.409Z,25.37
2019-05-01T09:04:30.408Z,22.45
2019-05-01T09:06:58.921Z,24.63
2019-05-01T09:09:29.640Z,24.55
2019-05-01T09:12:00.003Z,25.10
2019-05-01T09:14:34.873Z,26.17
2019-05-01T09:17:01.345Z,21.73
2019-05-01T09:19:31.859Z,30.45
2019-05-01T09:22:01.553Z,25.27
2019-05-01T09:24:31.702Z,22.73
2019-05-01T09:27:23.739Z,22.75
2019-05-01T09:29:53.383Z,23.25
2019-05-01T09:32:23.619Z,24.27
2019-05-01T09:34:53.688Z,22.17
2019-05-01T09:37:23.996Z,23.22
2019-05-01T09:39:54.101Z,18.77
2019-05-01T09:42:25.420Z,20.10
2019-05-01T09:44:55.475Z,17.55
2019-05-01T09:47:26.432Z,14.15
2019-05-01T09:49:57.140Z,16.12
2019-05-01T09:52:34.971Z,19.25
2019-05-01T09:55:23.085Z,18.55
2019-05-01T09:57:50.308Z,18.17
2019-05-01T10:00:27.472Z,15.88
2019-05-01T10:02:56.759Z,19.07
2019-05-01T10:05:28.996Z,17.77
2019-05-01T10:08:00.132Z,19.02
2019-05-01T10:10:31.032Z,19.67
2019-05-01T10:13:01.221Z,19.57
2019-05-01T10:15:31.197Z,18.40
2019-05-01T10:18:01.563Z,18.80
2019-05-01T10:20:31.966Z,17.62
2019-05-01T10:23:02.313Z,21.62
2019-05-01T10:25:32.662Z,20.02
2019-05-01T10:28:12.898Z,21.73
2019-05-01T10:30:58.465Z,19.25
2019-05-01T10:33:28.964Z,16.17
2019-05-01T10:36:17.819Z,18.75
2019-05-01T10:38:44.948Z,16.45
2019-05-01T10:41:14.924Z,17.27
2019-05-01T10:43:45.203Z,17.95
2019-05-01T10:46:15.664Z,17.10
2019-05-01T10:48:46.374Z,18.02
2019-05-01T10:51:16.860Z,15.08
2019-05-01T10:53:46.805Z,17.85
2019-05-01T10:56:35.912Z,14.90
2019-05-01T10:59:05.509Z,20.43
2019-05-01T11:01:46.964Z,16.40
2019-05-01T11:04:17.214Z,16.32
2019-05-01T11:06:47.147Z,15.93
2019-05-01T11:09:17.360Z,13.38
2019-05-01T11:11:46.950Z,12.40
2019-05-01T11:14:16.966Z,13.68
2019-05-01T11:16:47.059Z,13.88
2019-05-01T11:19:16.446Z,16.02
2019-05-01T11:21:46.596Z,16.07
2019-05-01T11:24:17.042Z,13.45
2019-05-01T11:26:47.094Z,15.85
2019-05-01T11:29:17.490Z,12.73
2019-05-01T11:31:58.092Z,16.07
2019-05-01T11:34:45.289Z,12.58
2019-05-01T11:37:48.984Z,15.55
2019-05-01T11:40:37.626Z,13.60
2019-05-01T11:43:07.901Z,11.78
2019-05-01T11:45:38.528Z,15.10
2019-05-01T11:48:08.930Z,10.45
2019-05-01T11:50:39.825Z,13.35
2019-05-01T11:53:09.896Z,13.83
2019-05-01T11:55:39.918Z,15.85
2019-05-01T11:58:09.630Z,12.28
2019-05-01T12:00:40.288Z,15.32
2019-05-01T12:03:10.342Z,14.30
2019-05-01T12:05:40.287Z,13.18
2019-05-01T12:08:10.376Z,13.03
2019-05-01T12:10:40.700Z,14.85
2019-05-01T12:13:11.139Z,16.37
2019-05-01T12:15:42.276Z,11.73
2019-05-01T12:18:12.298Z,14.65
2019-05-01T12:20:42.738Z,12.60
2019-05-01T12:23:13.137Z,13.58
2019-05-01T12:25:43.221Z,11.20
2019-05-01T12:28:13.473Z,14.03
2019-05-01T12:30:43.871Z,12.85
2019-05-01T12:33:14.384Z,14.00
2019-05-01T12:35:46.403Z,12.58
2019-05-01T12:38:16.403Z,14.63
2019-05-01T12:41:05.342Z,11.70
2019-05-01T12:43:35.308Z,12.23
2019-05-01T12:46:05.739Z,16.77
2019-05-01T12:48:35.104Z,14.30
2019-05-01T12:51:05.216Z,10.82
2019-05-01T12:53:48.155Z,12.58
2019-05-01T12:56:27.681Z,11.30
2019-05-01T12:58:57.349Z,15.28
2019-05-01T13:01:27.720Z,12.68
2019-05-01T13:03:58.008Z,12.28
2019-05-01T13:06:28.725Z,13.30
2019-05-01T13:08:59.411Z,16.57
2019-05-01T13:11:29.752Z,10.40
2019-05-01T13:13:59.863Z,13.25
2019-05-01T13:16:30.127Z,11.28
2019-05-01T13:18:59.411Z,11.73
2019-05-01T13:21:29.427Z,15.68
2019-05-01T13:23:59.111Z,13.65
2019-05-01T13:26:53.789Z,12.68
2019-05-01T13:32:53.730Z,12.07
2019-05-01T13:35:23.851Z,10.32
2019-05-01T13:37:54.195Z,8.93
2019-05-01T13:40:23.996Z,12.03
2019-05-01T13:42:53.939Z,13.70
2019-05-01T13:45:23.939Z,11.85
2019-05-01T13:47:54.557Z,9.53
2019-05-01T13:50:25.335Z,9.78
2019-05-01T13:52:55.007Z,14.80
2019-05-01T13:55:24.315Z,12.68
2019-05-01T13:57:55.080Z,13.68
2019-05-01T14:00:26.923Z,10.00
2019-05-01T14:02:57.640Z,12.68
2019-05-01T14:05:27.968Z,11.53
2019-05-01T14:07:57.963Z,12.53
2019-05-01T14:10:28.302Z,14.05
2019-05-01T14:12:58.546Z,11.38
2019-05-01T14:15:27.861Z,12.20
2019-05-01T14:17:58.247Z,12.30
2019-05-01T14:20:42.199Z,11.12
2019-05-01T14:23:22.204Z,9.13
2019-05-01T14:26:05.072Z,9.23
2019-05-01T14:28:35.440Z,9.73
2019-05-01T14:31:06.395Z,13.80
2019-05-01T14:33:36.786Z,10.70
2019-05-01T14:36:07.230Z,10.65
2019-05-01T14:38:36.931Z,14.03
2019-05-01T14:41:07.307Z,11.57
2019-05-01T14:43:37.288Z,13.72
2019-05-01T14:46:07.637Z,15.08
2019-05-01T14:48:37.576Z,10.30
2019-05-01T14:51:07.862Z,15.25
2019-05-01T14:53:38.354Z,9.45
2019-05-01T14:56:08.781Z,10.88
2019-05-01T14:58:39.135Z,9.45
2019-05-01T15:01:09.087Z,9.98
2019-05-01T15:03:38.730Z,13.28
2019-05-01T15:06:08.818Z,10.13
2019-05-01T15:08:39.125Z,11.03
2019-05-01T15:11:09.439Z,9.25
2019-05-01T15:13:54.940Z,10.05
2019-05-01T15:16:38.701Z,12.05
2019-05-01T15:19:12.687Z,11.08
2019-05-01T15:21:42.981Z,12.18
2019-05-01T15:24:12.637Z,9.68
2019-05-01T15:26:42.966Z,9.65
2019-05-01T15:29:13.639Z,14.28
2019-05-01T15:31:43.719Z,10.80
2019-05-01T15:34:13.709Z,11.88
2019-05-01T15:36:43.419Z,13.25
2019-05-01T15:39:23.978Z,10.35
2019-05-01T15:42:13.047Z,13.45
2019-05-01T15:44:43.450Z,14.43
2019-05-01T15:47:13.517Z,12.68
2019-05-01T15:49:44.141Z,10.08
2019-05-01T15:52:14.382Z,13.00
2019-05-01T15:54:44.761Z,10.53
2019-05-01T15:57:14.803Z,12.35
2019-05-01T15:59:44.833Z,12.13
2019-05-01T16:02:14.422Z,9.73
2019-05-01T16:04:44.394Z,10.35
2019-05-01T16:07:14.779Z,12.23
2019-05-01T16:09:45.230Z,12.30
2019-05-01T16:12:33.247Z,11.43
2019-05-01T16:15:05.221Z,8.88
2019-05-01T16:17:35.617Z,11.18
2019-05-01T16:20:05.860Z,10.63
2019-05-01T16:22:35.851Z,10.72
2019-05-01T16:25:06.830Z,11.00
2019-05-01T16:27:36.468Z,9.75
2019-05-01T16:30:07.827Z,9.23
2019-05-01T16:32:38.473Z,10.08
2019-05-01T16:35:08.194Z,10.93
2019-05-01T16:37:38.233Z,12.50
2019-05-01T16:40:45.488Z,9.93
2019-05-01T16:43:15.656Z,10.68
2019-05-01T16:45:45.995Z,10.53
2019-05-01T16:48:16.075Z,10.55
2019-05-01T16:50:46.100Z,8.08
2019-05-01T16:53:15.911Z,10.82
2019-05-01T16:55:46.623Z,8.73
2019-05-01T16:58:17.542Z,8.30
2019-05-01T17:00:57.521Z,8.65
2019-05-01T17:03:46.621Z,9.55
2019-05-01T17:06:41.364Z,9.88
2019-05-01T17:09:35.482Z,8.38
2019-05-01T17:12:05.536Z,9.73
2019-05-01T17:14:35.277Z,9.63
2019-05-01T17:17:06.961Z,12.35
2019-05-01T17:19:37.695Z,9.60
2019-05-01T17:22:09.194Z,11.83
2019-05-01T17:24:39.571Z,11.95
2019-05-01T17:27:09.651Z,12.00
2019-05-01T17:29:39.634Z,11.28
2019-05-01T17:32:11.967Z,11.08
2019-05-01T17:34:41.694Z,10.20
2019-05-01T17:37:11.705Z,9.53
2019-05-01T17:39:41.396Z,14.75
2019-05-01T17:42:11.441Z,9.53
2019-05-01T17:44:41.633Z,9.83
2019-05-01T17:47:11.660Z,11.00
2019-05-01T17:49:44.911Z,11.48
2019-05-01T17:52:13.779Z,10.10
2019-05-01T17:54:44.210Z,9.95
2019-05-01T17:57:14.588Z,7.92
2019-05-01T17:59:46.253Z,10.15
2019-05-01T18:02:41.146Z,9.93
2019-05-01T18:05:23.148Z,9.40
2019-05-01T18:07:53.295Z,9.93
2019-05-01T18:10:23.382Z,8.95
2019-05-01T18:12:53.426Z,8.18
2019-05-01T18:15:22.787Z,10.38
2019-05-01T18:17:53.127Z,9.10
2019-05-01T18:20:23.721Z,9.00
2019-05-01T18:23:13.427Z,8.53
2019-05-01T18:25:47.043Z,7.03
2019-05-01T18:28:30.103Z,10.98
2019-05-01T18:30:58.820Z,9.58
2019-05-01T18:33:28.459Z,9.50
2019-05-01T18:35:58.352Z,8.60
2019-05-01T18:38:37.178Z,6.95
2019-05-01T18:41:44.293Z,9.35
2019-05-01T18:44:14.403Z,8.13
2019-05-01T18:46:44.901Z,12.20
2019-05-01T18:49:15.188Z,10.32
2019-05-01T18:51:44.973Z,9.20
2019-05-01T18:54:15.118Z,11.22
2019-05-01T18:56:45.248Z,7.28
2019-05-01T18:59:15.321Z,11.68
2019-05-01T19:01:48.574Z,9.33
2019-05-01T19:04:18.386Z,7.90
2019-05-01T19:06:49.367Z,10.75
2019-05-01T19:09:29.819Z,11.10
2019-05-01T19:11:51.656Z,9.33
2019-05-01T19:14:23.616Z,6.92
2019-05-01T19:16:55.229Z,8.28
2019-05-01T19:19:25.855Z,8.60
2019-05-01T19:21:55.969Z,9.38
2019-05-01T19:24:26.382Z,9.03
2019-05-01T19:26:56.469Z,11.50
2019-05-01T19:29:31.912Z,10.58
2019-05-01T19:31:59.141Z,11.85
2019-05-01T19:34:29.741Z,7.95
2019-05-01T19:37:00.296Z,11.45
2019-05-01T19:39:43.096Z,12.93
2019-05-01T19:42:02.548Z,12.65
2019-05-01T19:44:32.783Z,11.48
2019-05-01T19:47:03.378Z,13.93
2019-05-01T19:49:34.256Z,11.03
2019-05-01T19:52:05.270Z,12.00
2019-05-01T19:54:35.856Z,10.82
2019-05-01T19:57:05.930Z,10.58
2019-05-01T19:59:36.584Z,11.53
2019-05-01T20:02:07.555Z,14.20
2019-05-01T20:04:37.671Z,10.72
2019-05-01T20:07:10.561Z,13.62
2019-05-01T20:09:39.870Z,12.47
2019-05-01T20:12:09.953Z,11.80
2019-05-01T20:14:40.332Z,10.90
2019-05-01T20:17:11.742Z,11.55
2019-05-01T20:19:41.668Z,10.10
2019-05-01T20:22:14.617Z,11.63
2019-05-01T20:24:45.855Z,12.05
2019-05-01T20:27:16.351Z,10.18
2019-05-01T20:29:46.474Z,10.82
2019-05-01T20:32:16.438Z,9.98
2019-05-01T20:34:48.000Z,11.65
2019-05-01T20:37:19.311Z,9.03
2019-05-01T20:39:49.400Z,14.20
2019-05-01T20:42:19.088Z,9.60
2019-05-01T20:45:03.768Z,13.03
2019-05-01T20:47:34.413Z,11.65
2019-05-01T20:49:53.143Z,12.78
2019-05-01T20:52:23.174Z,11.28
2019-05-01T20:54:53.225Z,9.58
2019-05-01T20:57:28.466Z,10.63
2019-05-01T20:59:59.062Z,10.78
2019-05-01T21:02:28.481Z,11.33
2019-05-01T21:05:15.818Z,12.18
2019-05-01T21:07:56.536Z,10.13
2019-05-01T21:10:29.836Z,11.38
2019-05-01T21:12:58.782Z,9.43
2019-05-01T21:15:28.686Z,13.98
2019-05-01T21:17:59.035Z,13.60
2019-05-01T21:20:29.070Z,15.35
2019-05-01T21:22:58.801Z,11.35
2019-05-01T21:25:29.198Z,9.65
2019-05-01T21:27:58.898Z,10.80
2019-05-01T21:30:29.241Z,11.78
2019-05-01T21:33:08.144Z,11.70
2019-05-01T21:35:31.034Z,10.78
2019-05-01T21:38:01.245Z,10.28
2019-05-01T21:40:40.107Z,11.63
2019-05-01T21:43:03.611Z,12.43
2019-05-01T21:45:34.139Z,11.50
2019-05-01T21:48:03.820Z,13.45
2019-05-01T21:50:33.774Z,11.85
2019-05-01T21:53:06.805Z,14.93
2019-05-01T21:55:35.510Z,13.88
2019-05-01T21:58:05.893Z,9.78
2019-05-01T22:00:40.698Z,11.20
2019-05-01T22:03:10.792Z,12.80
2019-05-01T22:05:41.567Z,11.40
2019-05-01T22:08:11.373Z,12.63
2019-05-01T22:10:51.775Z,11.88
2019-05-01T22:13:14.135Z,12.60
2019-05-01T22:15:48.983Z,12.93
2019-05-01T22:18:24.586Z,11.78
2019-05-01T22:21:12.939Z,12.03
2019-05-01T22:24:00.533Z,11.80
2019-05-01T22:26:32.687Z,14.35
2019-05-01T22:29:04.648Z,14.25
2019-05-01T22:31:59.454Z,14.80
2019-05-01T22:34:50.700Z,15.23
2019-05-01T22:37:21.102Z,12.75
2019-05-01T22:39:56.428Z,13.20
2019-05-01T22:42:26.771Z,11.93
2019-05-01T22:44:56.742Z,15.10
2019-05-01T22:47:27.095Z,11.60
2019-05-01T22:49:56.885Z,16.35
2019-05-01T22:52:27.272Z,12.55
2019-05-01T22:54:56.943Z,9.88
2019-05-01T22:57:27.269Z,9.68
2019-05-01T22:59:56.886Z,13.05
2019-05-01T23:02:36.349Z,11.12
2019-05-01T23:05:07.047Z,11.90
2019-05-01T23:07:36.751Z,13.88
2019-05-01T23:10:07.354Z,15.60
2019-05-01T23:12:37.715Z,13.43
2019-05-01T23:15:13.383Z,13.43
2019-05-01T23:17:45.559Z,11.90
2019-05-01T23:20:16.790Z,14.53
2019-05-01T23:22:46.380Z,13.48
2019-05-01T23:25:16.394Z,11.63
2019-05-01T23:27:46.838Z,11.18
2019-05-01T23:30:18.386Z,12.90
2019-05-01T23:32:48.672Z,11.35
2019-05-01T23:35:18.636Z,13.05
2019-05-01T23:37:48.728Z,11.73
2019-05-01T23:40:18.795Z,9.88
2019-05-01T23:42:52.840Z,11.70
2019-05-01T23:45:20.697Z,10.88
2019-05-01T23:47:50.399Z,11.33
2019-05-01T23:50:20.258Z,10.60
2019-05-01T23:52:49.860Z,12.98
2019-05-01T23:55:19.961Z,11.75
2019-05-01T23:57:50.641Z,9.83
